KNGU/NGU METAR and TAF weather

Enter ICAO airport designator
Station Type Date Time Source
KNGU METAR 2023/02/04 02:59 UTC NOAA

KNGU 040259Z 35016G23KT 10SM CLR M01/M14 A3046 RMK AO2 PK WND 36028/0210 SLP314 T10111144 51040


Station Type Date Time Source
KNGU Decoded METAR 2023/02/04 02:59 UTC NOAA

Norfolk, Naval Air Station, VA, United States (KNGU) 36-56-01N 076-17-45W 8M
Feb 03, 2023 - 09:59 PM EST / 2023.02.04 0259 UTC
Wind: from the N (350 degrees) at 18 MPH (16 KT) gusting to 26 MPH (23 KT):0
Visibility: 10 mile(s):0
Sky conditions: clear
Temperature: 30.0 F (-1.1 C)
Windchill: 17 F (-8 C):1
Dew Point: 6.1 F (-14.4 C)
Relative Humidity: 35%
Pressure (altimeter): 30.46 in. Hg (1031 hPa)
Pressure tendency: 0.12 inches (4.0 hPa) higher than three hours ago
ob: KNGU 040259Z 35016G23KT 10SM CLR M01/M14 A3046 RMK AO2 PK WND 36028/0210 SLP314 T10111144 51040
cycle: 3

Station Type Date Time Source
KNGU TAF 2023/02/03 23:57 UTC NOAA

TAF KNGU 0323/0423 36016G26KT 9999 FEW050 520009 521409 522309 523205 QNH3028INS
FM040900 36011G19KT 9999 SCT030 500000 QNH3050INS
FM041500 02009KT 9999 SCT030 QNH3060INS TM05/0411Z T02/0420Z FN20004

Example: see airport list